Time;durP1;ratioP1;P1;durP2;ratioP2;P2;SDS_P1;SDS_P2;PMS_P1;PMS_P2;Temp;Humidity;BMP_temperature;BMP_pressure;BME280_temperature;BME280_humidity;BME280_pressure;Samples;Min_cycle;Max_cycle;Signal;HPM_P1;HPM_P2
2022/03/21 00:00:40;;;;;;;4.90;2.00;;;8.50;1.00;;;;;;5057836;28;20443;-60
2022/03/21 00:03:09;;;;;;;4.93;2.90;;;8.50;1.00;;;;;;5056586;28;20451;-61
2022/03/21 00:05:37;;;;;;;6.27;3.03;;;8.60;1.00;;;;;;5057580;28;20451;-59
2022/03/21 00:08:04;;;;;;;5.37;2.83;;;8.70;1.00;;;;;;5056440;28;20455;-59
2022/03/21 00:10:32;;;;;;;3.20;1.63;;;8.70;1.00;;;;;;5057009;28;20530;-60
2022/03/21 00:13:00;;;;;;;5.43;2.30;;;8.60;1.00;;;;;;5056056;28;20487;-59
2022/03/21 00:15:27;;;;;;;6.00;2.90;;;8.60;1.00;;;;;;5057150;28;20451;-60
2022/03/21 00:17:55;;;;;;;8.20;2.63;;;8.50;1.00;;;;;;5055543;28;20570;-60
2022/03/21 00:20:23;;;;;;;3.60;1.73;;;8.60;1.00;;;;;;5055567;28;20457;-59
2022/03/21 00:22:52;;;;;;;6.10;3.50;;;8.50;1.00;;;;;;5013025;28;1227247;-59
2022/03/21 00:25:20;;;;;;;10.80;3.00;;;8.40;1.00;;;;;;5056631;28;20204;-59
2022/03/21 00:27:47;;;;;;;8.50;2.40;;;8.40;1.00;;;;;;5056229;28;20744;-60
2022/03/21 00:30:14;;;;;;;9.17;2.50;;;8.30;1.00;;;;;;5056053;28;20467;-60
2022/03/21 00:32:41;;;;;;;6.80;2.47;;;8.20;1.00;;;;;;5055885;28;20491;-59
2022/03/21 00:35:10;;;;;;;5.07;3.53;;;8.20;1.00;;;;;;5058007;28;20494;-59
2022/03/21 00:37:39;;;;;;;4.17;2.97;;;8.10;1.00;;;;;;5055670;28;20494;-60
2022/03/21 00:40:08;;;;;;;5.70;2.37;;;8.10;1.00;;;;;;5056510;28;20443;-59
2022/03/21 00:42:37;;;;;;;4.00;2.87;;;8.10;1.00;;;;;;5056347;28;20443;-60
2022/03/21 00:45:05;;;;;;;5.43;3.17;;;8.00;1.00;;;;;;5056849;28;20443;-59
2022/03/21 00:47:32;;;;;;;7.13;2.87;;;8.00;1.00;;;;;;5056344;28;20444;-60
2022/03/21 00:49:59;;;;;;;8.10;3.50;;;7.90;1.00;;;;;;5057130;28;20542;-59
2022/03/21 00:52:26;;;;;;;5.63;3.40;;;7.90;1.00;;;;;;5057018;28;20721;-59
2022/03/21 00:54:54;;;;;;;5.20;4.00;;;7.90;1.00;;;;;;5057772;28;20487;-60
2022/03/21 00:57:21;;;;;;;6.40;2.70;;;7.90;1.00;;;;;;5056894;28;20530;-59
2022/03/21 00:59:48;;;;;;;3.80;2.63;;;7.80;1.00;;;;;;5057774;28;20543;-59
2022/03/21 01:02:15;;;;;;;7.90;3.90;;;7.80;1.00;;;;;;5056570;28;20538;-60
2022/03/21 01:04:42;;;;;;;4.30;1.93;;;7.80;1.00;;;;;;5055971;28;20487;-60
2022/03/21 01:07:09;;;;;;;5.83;3.80;;;7.80;1.00;;;;;;5057830;28;20448;-64
2022/03/21 01:09:36;;;;;;;7.23;2.93;;;7.70;1.00;;;;;;5056366;28;20763;-59
2022/03/21 01:12:06;;;;;;;7.10;2.17;;;7.70;1.00;;;;;;5057335;28;20494;-64
2022/03/21 01:14:33;;;;;;;5.17;2.20;;;7.80;1.00;;;;;;5056384;28;20956;-59
2022/03/21 01:17:00;;;;;;;6.83;2.23;;;7.80;1.00;;;;;;5057637;28;20451;-60
2022/03/21 01:19:30;;;;;;;6.10;3.97;;;7.80;1.00;;;;;;5056219;28;20465;-59
2022/03/21 01:21:57;;;;;;;5.10;2.43;;;7.70;1.00;;;;;;5057047;28;20483;-59
2022/03/21 01:24:24;;;;;;;10.97;3.47;;;7.50;1.00;;;;;;5056378;28;20562;-60
2022/03/21 01:26:51;;;;;;;3.10;2.00;;;7.40;1.00;;;;;;5056640;28;20538;-60
2022/03/21 01:29:19;;;;;;;5.50;3.27;;;7.30;1.00;;;;;;5055460;28;20459;-60
2022/03/21 01:31:46;;;;;;;4.10;2.40;;;7.20;1.00;;;;;;5056922;28;20444;-58
2022/03/21 01:34:13;;;;;;;5.93;2.70;;;7.20;1.00;;;;;;5056408;28;20577;-58
2022/03/21 01:36:40;;;;;;;13.93;4.23;;;7.20;1.00;;;;;;5056950;28;20538;-58
2022/03/21 01:39:07;;;;;;;6.90;3.53;;;7.30;1.00;;;;;;5054613;28;20502;-58
2022/03/21 01:41:34;;;;;;;6.20;2.70;;;7.30;1.00;;;;;;5056276;28;20805;-58
2022/03/21 01:44:03;;;;;;;3.03;2.00;;;7.30;1.00;;;;;;5054485;28;20498;-58
2022/03/21 01:46:32;;;;;;;7.17;3.20;;;7.30;1.00;;;;;;5056364;28;20479;-58
2022/03/21 01:49:00;;;;;;;5.13;2.47;;;7.30;1.00;;;;;;5056102;28;20550;-58
2022/03/21 01:51:27;;;;;;;5.20;2.73;;;7.30;1.00;;;;;;5056541;28;20526;-60
2022/03/21 01:56:40;;;;;;;6.50;2.63;;;7.20;1.00;;;;;;5056137;28;20469;-59
2022/03/21 01:59:09;;;;;;;6.53;2.57;;;7.20;1.00;;;;;;5055652;28;20464;-60
2022/03/21 02:01:37;;;;;;;3.70;2.00;;;7.30;1.00;;;;;;5055645;28;20953;-58
2022/03/21 02:04:05;;;;;;;5.63;2.80;;;7.20;1.00;;;;;;5055287;28;20456;-58
2022/03/21 02:06:32;;;;;;;7.37;2.20;;;7.30;1.00;;;;;;5055056;28;20446;-59
2022/03/21 02:09:01;;;;;;;4.20;2.30;;;7.30;1.00;;;;;;5053919;28;20557;-60
2022/03/21 02:11:28;;;;;;;3.93;1.93;;;7.40;1.00;;;;;;5052864;28;20546;-58
2022/03/21 02:13:57;;;;;;;5.20;3.47;;;7.40;1.00;;;;;;5054208;28;20578;-58
2022/03/21 02:16:25;;;;;;;7.03;2.43;;;7.40;1.00;;;;;;5053837;28;20505;-58
2022/03/21 02:18:54;;;;;;;4.40;2.10;;;7.50;1.00;;;;;;5054996;28;20453;-59
2022/03/21 02:21:24;;;;;;;4.70;2.10;;;7.40;1.00;;;;;;5054439;28;20773;-59
2022/03/21 02:23:59;;;;;;;7.17;2.93;;;7.20;1.00;;;;;;5055923;28;20443;-59
2022/03/21 02:26:29;;;;;;;5.20;2.80;;;7.20;1.00;;;;;;5055676;28;20557;-58
2022/03/21 02:28:58;;;;;;;4.33;2.10;;;7.00;1.00;;;;;;5056004;28;20487;-59
2022/03/21 02:31:26;;;;;;;4.00;2.60;;;7.00;1.00;;;;;;5055282;28;20524;-59
2022/03/21 02:33:57;;;;;;;4.03;2.30;;;7.00;1.00;;;;;;5056275;28;20800;-59
2022/03/21 02:36:26;;;;;;;4.00;2.40;;;7.00;1.00;;;;;;5055069;28;20464;-58
2022/03/21 02:38:54;;;;;;;3.70;2.13;;;7.10;1.00;;;;;;5056657;28;20443;-58
2022/03/21 02:41:21;;;;;;;6.63;2.33;;;7.00;1.00;;;;;;5056221;28;20550;-59
2022/03/21 02:43:57;;;;;;;5.93;3.00;;;6.90;1.00;;;;;;5056180;28;20534;-58
2022/03/21 02:46:24;;;;;;;5.50;2.73;;;6.90;1.00;;;;;;5055758;28;20495;-59
2022/03/21 02:48:57;;;;;;;8.33;2.60;;;6.90;1.00;;;;;;5056209;28;20886;-59
2022/03/21 02:51:28;;;;;;;6.33;2.07;;;7.00;1.00;;;;;;5055343;28;20458;-59
2022/03/21 02:53:55;;;;;;;7.10;2.80;;;7.00;1.00;;;;;;5059923;28;20874;-59
2022/03/21 02:56:22;;;;;;;4.00;2.60;;;7.00;1.00;;;;;;5059191;28;20549;-58
2022/03/21 02:58:50;;;;;;;5.90;2.93;;;7.10;1.00;;;;;;5059581;28;20538;-59
2022/03/21 03:01:19;;;;;;;3.90;2.50;;;7.10;1.00;;;;;;5058941;28;20517;-59
2022/03/21 03:03:46;;;;;;;4.13;1.93;;;7.20;1.00;;;;;;5059723;28;20533;-59
2022/03/21 03:06:13;;;;;;;5.23;1.70;;;7.30;1.00;;;;;;5058610;28;20549;-59
2022/03/21 03:08:42;;;;;;;6.13;2.97;;;7.30;1.00;;;;;;5058392;28;20444;-59
2022/03/21 03:11:08;;;;;;;7.80;2.30;;;7.10;1.00;;;;;;5057144;28;20548;-58
2022/03/21 03:13:35;;;;;;;5.90;2.57;;;7.00;1.00;;;;;;5058287;28;20775;-58
2022/03/21 03:16:03;;;;;;;8.63;2.70;;;6.90;1.00;;;;;;5057425;28;20491;-58
2022/03/21 03:18:31;;;;;;;4.57;2.57;;;6.80;1.00;;;;;;5058264;28;20530;-58
2022/03/21 03:20:59;;;;;;;7.20;2.60;;;6.80;1.00;;;;;;5058329;28;20565;-61
2022/03/21 03:23:28;;;;;;;4.57;1.80;;;6.90;1.00;;;;;;5059361;28;20574;-58
2022/03/21 03:26:01;;;;;;;9.07;2.67;;;6.70;1.00;;;;;;5059120;28;20898;-59
2022/03/21 03:28:28;;;;;;;5.07;2.40;;;6.70;1.00;;;;;;5059786;28;20522;-59
2022/03/21 03:30:56;;;;;;;4.27;2.13;;;6.70;1.00;;;;;;5058343;28;20479;-58
2022/03/21 03:33:24;;;;;;;6.30;2.10;;;6.70;1.00;;;;;;5059534;28;20443;-57
2022/03/21 03:35:52;;;;;;;6.83;2.87;;;6.60;1.00;;;;;;5058476;28;20491;-58
2022/03/21 03:38:19;;;;;;;5.10;2.73;;;6.60;1.00;;;;;;5059183;28;20542;-59
2022/03/21 03:40:46;;;;;;;4.63;2.00;;;6.50;1.00;;;;;;5057841;28;20505;-59
2022/03/21 03:43:15;;;;;;;3.70;1.73;;;6.50;1.00;;;;;;5059040;28;20538;-60
2022/03/21 03:45:43;;;;;;;7.53;3.10;;;6.60;1.00;;;;;;5058366;28;20451;-58
2022/03/21 03:48:10;;;;;;;4.07;1.77;;;6.60;1.00;;;;;;5058996;28;20458;-58
2022/03/21 03:50:37;;;;;;;7.50;3.30;;;6.60;1.00;;;;;;5058084;28;20451;-58
2022/03/21 03:53:06;;;;;;;3.33;1.87;;;6.60;1.00;;;;;;5059100;28;20451;-58
2022/03/21 03:55:33;;;;;;;4.33;2.10;;;6.70;1.00;;;;;;5058068;28;20585;-58
2022/03/21 03:57:59;;;;;;;4.90;2.50;;;6.80;1.00;;;;;;5058827;28;20467;-58
2022/03/21 04:00:26;;;;;;;3.70;1.50;;;6.60;1.00;;;;;;5058158;28;20461;-59
2022/03/21 04:05:37;;;;;;;5.77;2.33;;;6.30;1.00;;;;;;5058256;28;20477;-59
2022/03/21 04:08:07;;;;;;;3.97;2.00;;;6.20;1.00;;;;;;5058987;28;20542;-58
2022/03/21 04:10:33;;;;;;;6.73;2.53;;;6.20;1.00;;;;;;5057628;28;20452;-58
2022/03/21 04:13:00;;;;;;;5.47;1.93;;;6.10;1.00;;;;;;5058632;28;20814;-58
2022/03/21 04:15:27;;;;;;;2.27;1.50;;;6.10;1.00;;;;;;5057780;28;20498;-58
2022/03/21 04:17:59;;;;;;;4.97;1.90;;;6.00;1.00;;;;;;5058599;28;20450;-58
2022/03/21 04:20:26;;;;;;;7.93;3.37;;;5.90;1.00;;;;;;5057604;28;20452;-58
2022/03/21 04:22:53;;;;;;;2.77;1.63;;;5.90;1.00;;;;;;5058225;28;20536;-59
2022/03/21 04:25:21;;;;;;;8.17;3.13;;;6.00;1.00;;;;;;5057597;28;20504;-59
2022/03/21 04:27:49;;;;;;;6.07;1.93;;;6.00;1.00;;;;;;5058401;28;20443;-59
2022/03/21 04:30:16;;;;;;;3.80;1.90;;;6.10;1.00;;;;;;5056317;28;20510;-59
2022/03/21 04:32:43;;;;;;;6.23;2.73;;;6.20;1.00;;;;;;5058468;28;20554;-59
2022/03/21 04:35:11;;;;;;;6.13;2.47;;;6.20;1.00;;;;;;5057553;28;20953;-59
2022/03/21 04:37:38;;;;;;;3.63;2.20;;;6.20;1.00;;;;;;5058387;28;20893;-59
2022/03/21 04:40:07;;;;;;;5.03;2.53;;;6.30;1.00;;;;;;5058468;28;20497;-59
2022/03/21 04:42:35;;;;;;;4.83;2.53;;;6.30;1.00;;;;;;5056184;28;20890;-58
2022/03/21 04:45:02;;;;;;;3.87;2.07;;;6.30;1.00;;;;;;5057797;28;20557;-59
2022/03/21 04:47:30;;;;;;;4.27;2.37;;;6.40;1.00;;;;;;5057281;28;20462;-59
2022/03/21 04:49:57;;;;;;;5.13;1.50;;;6.40;1.00;;;;;;5058248;28;20505;-59
2022/03/21 04:52:24;;;;;;;3.40;1.70;;;6.40;1.00;;;;;;5057294;28;20459;-59
2022/03/21 04:54:51;;;;;;;3.70;2.37;;;6.40;1.00;;;;;;5056630;28;20479;-60
2022/03/21 04:57:21;;;;;;;5.83;2.50;;;6.40;1.00;;;;;;5055802;28;20508;-59
2022/03/21 04:59:49;;;;;;;2.77;1.53;;;6.30;1.00;;;;;;5056268;28;20527;-59
2022/03/21 05:02:16;;;;;;;8.33;3.53;;;6.30;1.00;;;;;;5054625;28;20496;-58
2022/03/21 05:04:43;;;;;;;4.20;1.80;;;6.30;1.00;;;;;;5055621;28;20599;-59
2022/03/21 05:07:14;;;;;;;3.23;2.03;;;6.20;1.00;;;;;;5054032;28;20553;-59
2022/03/21 05:09:41;;;;;;;7.17;2.53;;;6.20;1.00;;;;;;5056235;28;20460;-60
2022/03/21 05:12:09;;;;;;;4.00;1.53;;;6.10;1.00;;;;;;5055124;28;20447;-54
2022/03/21 05:14:36;;;;;;;4.00;2.30;;;6.20;1.00;;;;;;5055102;28;20479;-58
2022/03/21 05:17:05;;;;;;;3.30;1.40;;;6.20;1.00;;;;;;5054696;28;20820;-58
2022/03/21 05:19:35;;;;;;;4.50;2.33;;;6.20;1.00;;;;;;5056427;28;20909;-59
2022/03/21 05:22:02;;;;;;;5.63;1.90;;;6.30;1.00;;;;;;5055773;28;20483;-58
2022/03/21 05:32:43;;;;;;;3.40;1.40;;;6.20;1.00;;;;;;5055675;28;20460;-59
2022/03/21 05:37:54;;;;;;;6.53;2.20;;;6.10;1.00;;;;;;5055006;28;20422;-58
2022/03/21 05:40:34;;;;;;;5.33;2.50;;;6.00;1.00;;;;;;5054987;28;20501;-58
2022/03/21 05:43:01;;;;;;;4.00;2.40;;;6.00;1.00;;;;;;5055710;28;20508;-58
2022/03/21 05:45:28;;;;;;;7.40;2.53;;;5.90;1.00;;;;;;5055756;28;20487;-58
2022/03/21 05:50:41;;;;;;;3.37;1.83;;;5.80;1.00;;;;;;5055526;28;20422;-58
2022/03/21 05:53:09;;;;;;;4.50;1.70;;;5.80;1.00;;;;;;5053925;28;20498;-59
2022/03/21 05:55:36;;;;;;;4.50;1.73;;;5.80;1.00;;;;;;5055503;28;20461;-58
2022/03/21 05:58:04;;;;;;;4.50;1.70;;;5.80;1.00;;;;;;5053430;28;20938;-58
2022/03/21 06:00:31;;;;;;;3.30;1.60;;;5.80;1.00;;;;;;5050869;28;20817;-58
2022/03/21 06:03:00;;;;;;;4.93;2.93;;;5.80;1.00;;;;;;5052289;28;20557;-57
2022/03/21 06:05:27;;;;;;;6.80;2.00;;;5.80;1.00;;;;;;5052812;28;20887;-58
2022/03/21 06:07:54;;;;;;;4.47;1.60;;;5.80;1.00;;;;;;5052466;28;20482;-56
2022/03/21 06:10:21;;;;;;;2.87;1.50;;;5.80;1.00;;;;;;5052763;28;20530;-59
2022/03/21 06:12:49;;;;;;;3.57;1.73;;;5.80;1.00;;;;;;5053320;28;20490;-59
2022/03/21 06:15:16;;;;;;;4.27;1.90;;;5.80;1.00;;;;;;5053699;28;20540;-57
2022/03/21 06:17:44;;;;;;;4.23;1.60;;;5.80;1.00;;;;;;5054481;28;20484;-58
2022/03/21 06:20:15;;;;;;;10.80;3.13;;;5.80;1.00;;;;;;5055492;28;20936;-60
2022/03/21 06:22:42;;;;;;;5.50;2.33;;;5.70;1.00;;;;;;5055054;28;20585;-56
2022/03/21 06:25:11;;;;;;;3.10;1.50;;;5.70;1.00;;;;;;5050763;28;20489;-56
2022/03/21 06:27:38;;;;;;;4.23;1.90;;;5.70;1.00;;;;;;5034569;28;20530;-57
2022/03/21 06:30:07;;;;;;;4.77;1.70;;;5.80;1.00;;;;;;5035282;28;20831;-59
2022/03/21 06:32:34;;;;;;;5.23;2.60;;;5.90;1.00;;;;;;5034777;28;20923;-59
2022/03/21 06:35:01;;;;;;;4.10;2.00;;;6.00;1.00;;;;;;5034135;28;20491;-59
2022/03/21 06:37:30;;;;;;;5.90;2.17;;;6.00;1.00;;;;;;5034923;28;20463;-56
2022/03/21 06:39:57;;;;;;;5.20;1.93;;;6.00;1.00;;;;;;5034469;28;20480;-58
2022/03/21 06:42:23;;;;;;;6.37;2.07;;;6.10;1.00;;;;;;5034185;28;20483;-57
2022/03/21 06:44:52;;;;;;;4.03;1.83;;;6.10;1.00;;;;;;5033654;28;20461;-56
2022/03/21 06:47:20;;;;;;;5.30;2.50;;;6.10;1.00;;;;;;5032307;28;20464;-57
2022/03/21 06:49:47;;;;;;;3.80;2.03;;;6.20;1.00;;;;;;5032146;28;20535;-57
2022/03/21 06:52:18;;;;;;;8.83;2.60;;;6.30;1.00;;;;;;5031693;28;20559;-57
2022/03/21 06:54:48;;;;;;;5.00;2.30;;;6.40;1.00;;;;;;5031845;28;20452;-57
2022/03/21 06:57:16;;;;;;;4.57;2.70;;;6.40;1.00;;;;;;5031744;28;20867;-55
2022/03/21 06:59:43;;;;;;;6.93;3.00;;;6.40;1.00;;;;;;5031685;28;20447;-57
2022/03/21 07:02:10;;;;;;;6.93;3.00;;;6.40;1.00;;;;;;5032956;28;20878;-57
2022/03/21 07:04:37;;;;;;;5.70;2.17;;;6.50;1.00;;;;;;5046628;28;20887;-55
2022/03/21 07:07:04;;;;;;;10.57;2.50;;;6.60;1.00;;;;;;5039438;28;20536;-58
2022/03/21 07:09:31;;;;;;;5.57;1.87;;;6.60;1.00;;;;;;5046302;28;20445;-58
2022/03/21 07:12:00;;;;;;;7.00;2.30;;;6.70;1.00;;;;;;5033886;28;20456;-58
2022/03/21 07:14:26;;;;;;;8.40;2.97;;;6.70;1.00;;;;;;5047893;28;20444;-59
2022/03/21 07:16:53;;;;;;;9.67;3.50;;;6.70;1.00;;;;;;5036886;28;20552;-59
2022/03/21 07:19:20;;;;;;;6.27;2.80;;;6.80;1.00;;;;;;5049696;28;20550;-58
2022/03/21 07:21:48;;;;;;;3.90;2.23;;;6.80;1.00;;;;;;5048561;28;20487;-58
2022/03/21 07:24:15;;;;;;;6.00;2.73;;;7.00;1.00;;;;;;5052575;28;20443;-59
2022/03/21 07:26:42;;;;;;;5.70;3.27;;;7.00;1.00;;;;;;5031460;28;21123;-58
2022/03/21 07:29:12;;;;;;;2.97;1.70;;;7.10;1.00;;;;;;5048095;28;20575;-55
2022/03/21 07:31:39;;;;;;;6.50;3.60;;;7.10;1.00;;;;;;5045020;28;20470;-56
2022/03/21 07:34:07;;;;;;;9.70;3.20;;;7.20;1.00;;;;;;5041112;28;20438;-58
2022/03/21 07:36:34;;;;;;;8.00;2.77;;;7.30;1.00;;;;;;5050854;28;20479;-57
2022/03/21 07:39:01;;;;;;;4.20;2.83;;;7.40;1.00;;;;;;5050195;28;20973;-58
2022/03/21 07:41:29;;;;;;;5.97;2.90;;;7.50;1.00;;;;;;5042726;28;20523;-58
2022/03/21 07:43:57;;;;;;;6.40;2.80;;;7.70;1.00;;;;;;5048925;28;20902;-61
2022/03/21 07:49:25;;;;;;;6.33;2.73;;;7.80;1.00;;;;;;4977646;28;21061;-57
2022/03/21 07:51:52;;;;;;;6.70;3.50;;;8.00;1.00;;;;;;4972709;28;20443;-59
2022/03/21 07:54:19;;;;;;;12.53;3.40;;;8.20;1.00;;;;;;5017920;28;20474;-59
2022/03/21 07:56:46;;;;;;;4.00;2.10;;;8.20;1.00;;;;;;5047778;28;20885;-59
2022/03/21 07:59:12;;;;;;;5.97;3.93;;;8.20;1.00;;;;;;5034861;28;20539;-59
2022/03/21 08:01:41;;;;;;;6.13;2.60;;;8.50;1.00;;;;;;5049162;28;20491;-59
2022/03/21 08:04:09;;;;;;;6.83;3.53;;;8.60;1.00;;;;;;5042931;28;20529;-59
2022/03/21 08:06:36;;;;;;;6.00;3.40;;;8.70;1.00;;;;;;5041528;28;20440;-59
2022/03/21 08:09:03;;;;;;;10.83;3.30;;;8.60;1.00;;;;;;5048040;28;20733;-59
2022/03/21 08:11:30;;;;;;;5.73;3.43;;;8.70;1.00;;;;;;5044594;28;20436;-59
2022/03/21 08:13:56;;;;;;;9.00;3.23;;;8.80;1.00;;;;;;5041304;28;20472;-59
2022/03/21 08:16:23;;;;;;;6.27;3.07;;;8.80;1.00;;;;;;5045422;28;20485;-59
2022/03/21 08:18:52;;;;;;;6.53;3.87;;;8.90;1.00;;;;;;5043023;28;20467;-59
2022/03/21 08:21:20;;;;;;;5.23;2.50;;;9.10;1.00;;;;;;5040473;28;20939;-59
2022/03/21 08:23:49;;;;;;;9.20;5.60;;;9.40;1.00;;;;;;5042703;28;20436;-61
2022/03/21 08:26:17;;;;;;;12.20;8.57;;;9.60;1.00;;;;;;5046207;28;20443;-60
2022/03/21 08:28:45;;;;;;;5.93;3.03;;;9.50;1.00;;;;;;5055214;28;20448;-60
2022/03/21 08:31:13;;;;;;;9.80;5.88;;;9.70;1.00;;;;;;5054740;28;20447;-61
2022/03/21 08:33:40;;;;;;;7.30;3.27;;;9.70;1.00;;;;;;5043818;28;20193;-58
2022/03/21 08:36:09;;;;;;;6.67;3.53;;;9.70;1.00;;;;;;5049577;28;20571;-58
2022/03/21 08:38:36;;;;;;;5.50;3.40;;;9.70;1.00;;;;;;5050672;28;20539;-59
2022/03/21 08:41:03;;;;;;;5.37;2.83;;;9.90;1.00;;;;;;5036860;28;20542;-59
2022/03/21 08:43:29;;;;;;;6.10;3.87;;;10.10;1.00;;;;;;5037951;28;20451;-59
2022/03/21 08:45:56;;;;;;;4.30;1.90;;;10.00;1.00;;;;;;5049479;28;20450;-60
2022/03/21 08:49:23;;;;;;;6.60;3.63;;;10.10;1.00;;;;;;5036837;28;20694;-59
2022/03/21 08:51:12;;;;;;;4.20;3.00;;;10.20;1.00;;;;;;5042098;28;20432;-59
2022/03/21 08:53:39;;;;;;;5.33;3.00;;;10.30;1.00;;;;;;5039475;28;20486;-59
2022/03/21 08:56:06;;;;;;;5.33;2.87;;;10.40;1.00;;;;;;5047317;28;20574;-58
2022/03/21 08:58:33;;;;;;;5.87;2.73;;;10.50;1.00;;;;;;5052062;28;20551;-59
2022/03/21 09:01:00;;;;;;;8.83;4.00;;;10.60;1.00;;;;;;5053223;28;20436;-59
2022/03/21 09:03:27;;;;;;;8.20;4.00;;;10.70;1.00;;;;;;5050979;28;20538;-60
2022/03/21 09:05:54;;;;;;;7.90;3.67;;;10.80;1.00;;;;;;5050160;28;20487;-60
2022/03/21 09:08:23;;;;;;;7.60;3.10;;;11.00;1.00;;;;;;5049630;28;20452;-57
2022/03/21 09:10:50;;;;;;;7.07;3.10;;;11.10;1.00;;;;;;5036139;28;20495;-58
2022/03/21 09:13:17;;;;;;;5.87;3.03;;;11.30;1.00;;;;;;5050234;28;20455;-58
2022/03/21 09:15:44;;;;;;;6.97;4.57;;;11.30;1.00;;;;;;5035309;28;20475;-58
2022/03/21 09:18:11;;;;;;;5.87;2.70;;;11.40;1.00;;;;;;5051197;28;20613;-59
2022/03/21 09:20:38;;;;;;;9.60;4.40;;;11.50;1.00;;;;;;5052828;28;20866;-58
2022/03/21 09:23:05;;;;;;;6.47;3.67;;;11.70;1.00;;;;;;5047840;28;20735;-58
2022/03/21 09:25:34;;;;;;;8.70;3.63;;;11.80;1.00;;;;;;5051594;28;20475;-59
2022/03/21 09:28:01;;;;;;;5.73;3.37;;;11.80;1.00;;;;;;5035464;28;20474;-60
2022/03/21 09:30:28;;;;;;;8.50;3.17;;;11.90;1.00;;;;;;5048519;28;20541;-61
2022/03/21 09:32:55;;;;;;;5.90;4.80;;;12.10;1.00;;;;;;5044743;28;20755;-58
2022/03/21 09:35:22;;;;;;;5.73;4.53;;;12.10;1.00;;;;;;5053435;28;20456;-61
2022/03/21 09:37:48;;;;;;;10.17;4.80;;;12.00;1.00;;;;;;5047006;28;20566;-60
2022/03/21 09:40:19;;;;;;;7.67;4.77;;;12.20;1.00;;;;;;5040095;28;20946;-59
2022/03/21 09:42:50;;;;;;;9.20;3.60;;;12.20;1.00;;;;;;5049391;28;20968;-60
2022/03/21 09:45:17;;;;;;;4.07;3.30;;;12.30;1.00;;;;;;5039988;28;20444;-58
2022/03/21 09:50:35;;;;;;;8.80;4.60;;;12.70;1.00;;;;;;5050507;28;20536;-59
2022/03/21 09:53:03;;;;;;;6.47;4.43;;;12.80;1.00;;;;;;5036184;28;20457;-58
2022/03/21 09:55:30;;;;;;;7.57;4.27;;;12.90;1.00;;;;;;5045642;28;20447;-61
2022/03/21 09:57:59;;;;;;;6.90;2.60;;;13.10;1.00;;;;;;5050923;28;20447;-60
2022/03/21 10:00:26;;;;;;;7.27;4.13;;;13.10;1.00;;;;;;5034725;28;20476;-61
2022/03/21 10:02:53;;;;;;;6.27;3.30;;;13.00;1.00;;;;;;5044210;28;20945;-58
2022/03/21 10:05:35;;;;;;;8.43;4.03;;;13.10;1.00;;;;;;5052676;28;20450;-58
2022/03/21 10:08:18;;;;;;;7.00;4.30;;;13.30;1.00;;;;;;5044657;28;20538;-58
2022/03/21 10:10:57;;;;;;;8.20;2.70;;;13.40;1.00;;;;;;5052586;28;20517;-58
2022/03/21 10:13:27;;;;;;;9.88;6.68;;;13.50;1.00;;;;;;5037034;28;20964;-60
2022/03/21 10:16:09;;;;;;;8.47;4.20;;;13.70;1.00;;;;;;5040579;28;20201;-58
2022/03/21 10:18:36;;;;;;;6.30;2.87;;;13.90;1.00;;;;;;5042667;28;20447;-60
2022/03/21 10:21:14;;;;;;;6.23;4.17;;;14.20;1.00;;;;;;5047490;28;20440;-60
2022/03/21 10:23:41;;;;;;;8.00;3.87;;;14.50;1.00;;;;;;5042604;28;20910;-60
2022/03/21 10:26:27;;;;;;;5.03;2.73;;;14.70;1.00;;;;;;5042262;28;20464;-60
2022/03/21 10:28:56;;;;;;;6.30;4.10;;;14.70;1.00;;;;;;5047951;28;20537;-59
2022/03/21 10:31:43;;;;;;;8.13;5.47;;;14.60;1.00;;;;;;5048984;28;20436;-59
2022/03/21 10:34:12;;;;;;;6.37;3.47;;;14.60;1.00;;;;;;5037110;28;20798;-59
2022/03/21 10:37:04;;;;;;;6.07;3.37;;;14.80;1.00;;;;;;5045980;28;20673;-61
2022/03/21 10:39:32;;;;;;;5.80;4.43;;;15.10;1.00;;;;;;5034084;28;20480;-60
2022/03/21 10:42:01;;;;;;;4.73;3.57;;;15.10;1.00;;;;;;5048514;28;20443;-60
2022/03/21 10:44:30;;;;;;;8.43;3.50;;;15.40;1.00;;;;;;5045912;28;20793;-59
2022/03/21 10:46:59;;;;;;;9.70;5.83;;;15.70;1.00;;;;;;5043879;28;20538;-59
2022/03/21 10:49:30;;;;;;;7.60;4.70;;;15.80;1.00;;;;;;5052064;28;20443;-60
2022/03/21 10:51:58;;;;;;;8.10;5.00;;;16.00;1.00;;;;;;5050285;28;20490;-59
2022/03/21 10:54:39;;;;;;;10.03;6.10;;;16.00;1.00;;;;;;5052406;28;20501;-59
2022/03/21 10:57:07;;;;;;;15.83;4.07;;;16.00;1.00;;;;;;5052376;28;20556;-59
2022/03/21 10:59:36;;;;;;;7.50;4.47;;;15.90;1.00;;;;;;5050686;28;20550;-60
2022/03/21 11:02:12;;;;;;;20.07;13.10;;;16.10;1.00;;;;;;5051725;28;20502;-60
2022/03/21 11:04:43;;;;;;;9.17;6.00;;;16.30;1.00;;;;;;5039725;28;20483;-59
2022/03/21 11:07:12;;;;;;;4.40;4.00;;;16.40;1.00;;;;;;5048783;28;20474;-60
2022/03/21 11:09:40;;;;;;;8.83;4.67;;;16.30;1.00;;;;;;5049375;28;20462;-59
2022/03/21 11:12:08;;;;;;;7.87;4.70;;;16.40;1.00;;;;;;5051711;28;20498;-59
2022/03/21 11:14:39;;;;;;;4.50;3.10;;;16.20;1.00;;;;;;5057453;28;20444;-59
2022/03/21 11:17:07;;;;;;;7.50;4.30;;;16.20;1.00;;;;;;5056136;28;20486;-59
2022/03/21 11:19:35;;;;;;;8.83;5.13;;;16.40;1.00;;;;;;5056588;28;20697;-59
2022/03/21 11:22:03;;;;;;;6.80;4.70;;;16.30;1.00;;;;;;5055133;28;20875;-58
2022/03/21 11:24:31;;;;;;;8.77;4.10;;;16.50;1.00;;;;;;5035805;28;20468;-59
2022/03/21 11:27:13;;;;;;;8.03;4.10;;;16.10;1.00;;;;;;5035850;28;20555;-57
2022/03/21 11:29:56;;;;;;;9.47;5.80;;;16.30;1.00;;;;;;5035368;28;20444;-58
2022/03/21 11:32:37;;;;;;;8.57;3.90;;;16.40;1.00;;;;;;5035245;28;20463;-58
2022/03/21 11:35:11;;;;;;;9.07;4.60;;;16.30;1.00;;;;;;5036509;28;20440;-59
2022/03/21 11:37:38;;;;;;;7.33;5.03;;;16.40;1.00;;;;;;5034862;28;20603;-59
2022/03/21 11:40:32;;;;;;;5.67;3.80;;;16.50;1.00;;;;;;5033871;28;20527;-59
2022/03/21 11:43:26;;;;;;;8.80;4.57;;;16.70;1.00;;;;;;5035043;28;20510;-59
2022/03/21 11:45:57;;;;;;;10.27;5.20;;;17.20;1.00;;;;;;5037136;28;20739;-59
2022/03/21 11:48:37;;;;;;;7.83;4.87;;;16.90;1.00;;;;;;5036952;28;20452;-59
2022/03/21 11:51:35;;;;;;;10.20;6.20;;;16.70;1.00;;;;;;5036159;28;21035;-59
2022/03/21 11:54:02;;;;;;;8.87;4.70;;;16.70;1.00;;;;;;5037211;28;20545;-59
2022/03/21 11:56:52;;;;;;;5.77;4.40;;;16.80;1.00;;;;;;5047704;28;20535;-59
2022/03/21 11:59:48;;;;;;;8.57;5.20;;;17.10;1.00;;;;;;5055079;28;20879;-59
2022/03/21 12:02:53;;;;;;;8.77;4.40;;;17.30;1.00;;;;;;5053261;28;20458;-60
2022/03/21 12:05:50;;;;;;;8.77;5.53;;;17.40;1.00;;;;;;5047595;28;20518;-60
2022/03/21 12:08:36;;;;;;;7.63;6.43;;;17.30;1.00;;;;;;5053832;28;20567;-59
2022/03/21 12:11:04;;;;;;;10.70;6.70;;;17.70;1.00;;;;;;5055623;28;20507;-60
2022/03/21 12:13:42;;;;;;;7.30;5.23;;;17.80;1.00;;;;;;5056899;28;20554;-60
2022/03/21 12:16:20;;;;;;;7.47;4.57;;;17.80;1.00;;;;;;5054886;28;20498;-60
2022/03/21 12:18:58;;;;;;;6.70;4.33;;;17.90;1.00;;;;;;5054688;28;20505;-59
2022/03/21 12:21:27;;;;;;;12.33;5.40;;;17.90;1.00;;;;;;5052759;28;20467;-59
2022/03/21 12:24:16;;;;;;;9.30;5.40;;;18.00;1.00;;;;;;5052515;28;20444;-58
2022/03/21 12:26:51;;;;;;;7.00;3.93;;;17.90;1.00;;;;;;5053585;28;20936;-58
2022/03/21 12:29:36;;;;;;;7.37;4.77;;;18.10;1.00;;;;;;5047214;28;20530;-58
2022/03/21 12:32:25;;;;;;;7.30;3.90;;;18.10;1.00;;;;;;5044073;28;20522;-58
2022/03/21 12:34:54;;;;;;;7.17;3.60;;;18.20;1.00;;;;;;5050815;28;20875;-58
2022/03/21 12:37:44;;;;;;;8.50;4.53;;;18.20;1.00;;;;;;5051662;28;20471;-59
2022/03/21 12:40:13;;;;;;;6.80;4.27;;;18.20;1.00;;;;;;5051623;28;20443;-58
2022/03/21 12:42:46;;;;;;;7.27;4.20;;;18.30;1.00;;;;;;5053111;28;20894;-58
2022/03/21 12:45:22;;;;;;;8.40;5.03;;;18.10;1.00;;;;;;5042174;28;20571;-59
2022/03/21 12:47:49;;;;;;;5.20;3.53;;;17.80;1.00;;;;;;5043040;28;20530;-61
2022/03/21 12:50:21;;;;;;;6.57;3.60;;;18.00;1.00;;;;;;5043908;28;20851;-60
2022/03/21 12:52:57;;;;;;;7.77;4.40;;;17.80;1.00;;;;;;5042067;28;20505;-60
2022/03/21 12:55:25;;;;;;;6.50;3.10;;;17.80;1.00;;;;;;5048957;28;20866;-61
2022/03/21 12:57:56;;;;;;;8.33;3.43;;;17.90;1.00;;;;;;5050628;28;20519;-60
2022/03/21 13:00:26;;;;;;;9.47;4.70;;;17.90;1.00;;;;;;5045009;28;20886;-59
2022/03/21 13:02:55;;;;;;;5.00;3.43;;;18.00;1.00;;;;;;5047468;28;20756;-59
2022/03/21 13:10:54;;;;;;;;;;;18.20;1.00;;;;;;5054147;28;20195;-51
2022/03/21 13:13:21;;;;;;;;;;;17.90;1.00;;;;;;5054240;28;19928;-54
2022/03/21 13:16:01;;;;;;;;;;;17.70;1.00;;;;;;5054221;28;19928;-51
2022/03/21 13:18:35;;;;;;;;;;;17.70;1.00;;;;;;5053721;28;19920;-53
2022/03/21 13:21:03;;;;;;;;;;;17.90;1.00;;;;;;5055543;28;19967;-49
2022/03/21 13:23:31;;;;;;;;;;;18.10;1.00;;;;;;5054354;28;20027;-53
2022/03/21 13:26:07;;;;;;;;;;;18.10;1.00;;;;;;5055094;28;20289;-50
2022/03/21 13:28:34;;;;;;;;;;;18.00;1.00;;;;;;5054847;28;20015;-50
2022/03/21 13:31:01;;;;;;;;;;;18.10;1.00;;;;;;5053637;28;19927;-48
2022/03/21 13:33:28;;;;;;;;;;;18.00;1.00;;;;;;5053137;28;19960;-54
2022/03/21 13:35:58;;;;;;;;;;;18.10;1.00;;;;;;5054464;28;20008;-49
2022/03/21 13:38:25;;;;;;;;;;;18.20;1.00;;;;;;5054309;28;19935;-50
2022/03/21 13:40:53;;;;;;;;;;;18.20;1.00;;;;;;5053897;28;20012;-52
2022/03/21 13:43:21;;;;;;;;;;;17.90;99.90;;;;;;5053218;28;20370;-50
2022/03/21 13:45:49;;;;;;;;;;;17.80;99.90;;;;;;5055580;28;20259;-52
2022/03/21 13:48:35;;;;;;;;;;;17.70;99.90;;;;;;5053571;28;20390;-50
2022/03/21 13:51:02;;;;;;;;;;;17.70;99.90;;;;;;5054187;28;19920;-55